sensor_id;sensor_type;location;lat;lon;timestamp;temperature;humidity
1546;DHT22;766;51.502;9.752;2022-07-23T00:01:02;16.90;99.90
1546;DHT22;766;51.502;9.752;2022-07-23T00:03:31;16.90;99.90
1546;DHT22;766;51.502;9.752;2022-07-23T00:05:59;17.00;99.90
1546;DHT22;766;51.502;9.752;2022-07-23T00:08:28;16.80;99.90
1546;DHT22;766;51.502;9.752;2022-07-23T00:10:56;16.70;99.90
1546;DHT22;766;51.502;9.752;2022-07-23T00:13:25;16.70;99.90
1546;DHT22;766;51.502;9.752;2022-07-23T00:15:53;16.70;99.90
1546;DHT22;766;51.502;9.752;2022-07-23T00:18:23;16.80;99.90
1546;DHT22;766;51.502;9.752;2022-07-23T00:20:52;16.80;99.90
1546;DHT22;766;51.502;9.752;2022-07-23T00:23:20;16.70;99.90
1546;DHT22;766;51.502;9.752;2022-07-23T00:25:49;16.70;99.90
1546;DHT22;766;51.502;9.752;2022-07-23T00:28:17;16.60;99.90
1546;DHT22;766;51.502;9.752;2022-07-23T00:30:46;16.50;99.90
1546;DHT22;766;51.502;9.752;2022-07-23T00:33:15;16.40;99.90
1546;DHT22;766;51.502;9.752;2022-07-23T00:35:44;16.50;99.90
1546;DHT22;766;51.502;9.752;2022-07-23T00:38:13;16.30;99.90
1546;DHT22;766;51.502;9.752;2022-07-23T00:40:42;16.30;99.90
1546;DHT22;766;51.502;9.752;2022-07-23T00:43:10;16.30;99.90
1546;DHT22;766;51.502;9.752;2022-07-23T00:45:38;16.40;99.90
1546;DHT22;766;51.502;9.752;2022-07-23T00:48:08;16.40;99.90
1546;DHT22;766;51.502;9.752;2022-07-23T00:50:36;16.40;99.90
1546;DHT22;766;51.502;9.752;2022-07-23T00:53:06;16.40;99.90
1546;DHT22;766;51.502;9.752;2022-07-23T00:55:36;16.30;99.90
1546;DHT22;766;51.502;9.752;2022-07-23T00:58:06;16.30;99.90
1546;DHT22;766;51.502;9.752;2022-07-23T01:00:34;16.20;99.90
1546;DHT22;766;51.502;9.752;2022-07-23T01:03:03;16.20;99.90
1546;DHT22;766;51.502;9.752;2022-07-23T01:05:32;16.30;99.90
1546;DHT22;766;51.502;9.752;2022-07-23T01:08:01;16.20;99.90
1546;DHT22;766;51.502;9.752;2022-07-23T01:10:31;16.30;99.90
1546;DHT22;766;51.502;9.752;2022-07-23T01:13:07;16.30;99.90
1546;DHT22;766;51.502;9.752;2022-07-23T01:15:39;16.30;99.90
1546;DHT22;766;51.502;9.752;2022-07-23T01:18:08;16.30;99.90
1546;DHT22;766;51.502;9.752;2022-07-23T01:20:37;16.30;99.90
1546;DHT22;766;51.502;9.752;2022-07-23T01:23:07;16.30;99.90
1546;DHT22;766;51.502;9.752;2022-07-23T01:25:35;16.40;99.90
1546;DHT22;766;51.502;9.752;2022-07-23T01:28:04;16.40;99.90
1546;DHT22;766;51.502;9.752;2022-07-23T01:30:32;16.40;99.90
1546;DHT22;766;51.502;9.752;2022-07-23T01:33:00;16.30;99.90
1546;DHT22;766;51.502;9.752;2022-07-23T01:35:29;16.20;99.90
1546;DHT22;766;51.502;9.752;2022-07-23T01:37:58;16.20;99.90
1546;DHT22;766;51.502;9.752;2022-07-23T01:40:27;16.30;99.90
1546;DHT22;766;51.502;9.752;2022-07-23T01:42:56;16.20;99.90
1546;DHT22;766;51.502;9.752;2022-07-23T01:45:26;16.30;99.90
1546;DHT22;766;51.502;9.752;2022-07-23T01:47:55;16.20;99.90
1546;DHT22;766;51.502;9.752;2022-07-23T01:50:23;16.30;99.90
1546;DHT22;766;51.502;9.752;2022-07-23T01:52:52;16.40;99.90
1546;DHT22;766;51.502;9.752;2022-07-23T01:55:21;16.40;99.90
1546;DHT22;766;51.502;9.752;2022-07-23T01:57:50;16.30;99.90
1546;DHT22;766;51.502;9.752;2022-07-23T02:00:19;16.30;99.90
1546;DHT22;766;51.502;9.752;2022-07-23T02:02:47;16.30;99.90
1546;DHT22;766;51.502;9.752;2022-07-23T02:05:16;16.30;99.90
1546;DHT22;766;51.502;9.752;2022-07-23T02:07:44;16.30;99.90
1546;DHT22;766;51.502;9.752;2022-07-23T02:10:13;16.30;99.90
1546;DHT22;766;51.502;9.752;2022-07-23T02:12:41;16.40;99.90
1546;DHT22;766;51.502;9.752;2022-07-23T02:15:11;16.40;99.90
1546;DHT22;766;51.502;9.752;2022-07-23T02:17:40;16.30;99.90
1546;DHT22;766;51.502;9.752;2022-07-23T02:20:10;16.30;99.90
1546;DHT22;766;51.502;9.752;2022-07-23T02:22:39;16.30;99.90
1546;DHT22;766;51.502;9.752;2022-07-23T02:25:07;16.30;99.90
1546;DHT22;766;51.502;9.752;2022-07-23T02:27:36;16.40;99.90
1546;DHT22;766;51.502;9.752;2022-07-23T02:30:06;16.40;99.90
1546;DHT22;766;51.502;9.752;2022-07-23T02:32:36;16.40;99.90
1546;DHT22;766;51.502;9.752;2022-07-23T02:35:07;16.30;99.90
1546;DHT22;766;51.502;9.752;2022-07-23T02:37:35;16.20;99.90
1546;DHT22;766;51.502;9.752;2022-07-23T02:40:08;16.20;99.90
1546;DHT22;766;51.502;9.752;2022-07-23T02:42:36;16.10;99.90
1546;DHT22;766;51.502;9.752;2022-07-23T02:45:06;16.10;99.90
1546;DHT22;766;51.502;9.752;2022-07-23T02:47:35;15.90;99.90
1546;DHT22;766;51.502;9.752;2022-07-23T02:50:05;15.70;99.90
1546;DHT22;766;51.502;9.752;2022-07-23T02:52:34;15.80;99.90
1546;DHT22;766;51.502;9.752;2022-07-23T02:55:03;15.80;99.90
1546;DHT22;766;51.502;9.752;2022-07-23T02:57:31;15.80;99.90
1546;DHT22;766;51.502;9.752;2022-07-23T03:00:05;15.80;99.90
1546;DHT22;766;51.502;9.752;2022-07-23T03:02:36;15.80;99.90
1546;DHT22;766;51.502;9.752;2022-07-23T03:05:06;15.80;99.90
1546;DHT22;766;51.502;9.752;2022-07-23T03:07:38;15.80;99.90
1546;DHT22;766;51.502;9.752;2022-07-23T03:10:07;15.90;99.90
1546;DHT22;766;51.502;9.752;2022-07-23T03:12:36;15.90;99.90
1546;DHT22;766;51.502;9.752;2022-07-23T03:15:06;16.00;99.90
1546;DHT22;766;51.502;9.752;2022-07-23T03:17:36;16.00;99.90
1546;DHT22;766;51.502;9.752;2022-07-23T03:20:05;16.00;99.90
1546;DHT22;766;51.502;9.752;2022-07-23T03:22:34;15.90;99.90
1546;DHT22;766;51.502;9.752;2022-07-23T03:25:03;15.90;99.90
1546;DHT22;766;51.502;9.752;2022-07-23T03:27:32;15.90;99.90
1546;DHT22;766;51.502;9.752;2022-07-23T03:30:01;15.80;99.90
1546;DHT22;766;51.502;9.752;2022-07-23T03:32:29;15.80;99.90
1546;DHT22;766;51.502;9.752;2022-07-23T03:35:00;15.80;99.90
1546;DHT22;766;51.502;9.752;2022-07-23T03:37:32;15.90;99.90
1546;DHT22;766;51.502;9.752;2022-07-23T03:40:01;15.80;99.90
1546;DHT22;766;51.502;9.752;2022-07-23T03:42:30;15.70;99.90
1546;DHT22;766;51.502;9.752;2022-07-23T03:44:58;15.70;99.90
1546;DHT22;766;51.502;9.752;2022-07-23T03:47:32;15.70;99.90
1546;DHT22;766;51.502;9.752;2022-07-23T03:50:07;15.80;99.90
1546;DHT22;766;51.502;9.752;2022-07-23T03:52:36;15.90;99.90
1546;DHT22;766;51.502;9.752;2022-07-23T03:55:06;15.90;99.90
1546;DHT22;766;51.502;9.752;2022-07-23T03:57:35;15.90;99.90
1546;DHT22;766;51.502;9.752;2022-07-23T04:00:06;15.80;99.90
1546;DHT22;766;51.502;9.752;2022-07-23T04:02:36;15.70;99.90
1546;DHT22;766;51.502;9.752;2022-07-23T04:05:07;15.70;99.90
1546;DHT22;766;51.502;9.752;2022-07-23T04:07:35;15.70;99.90
1546;DHT22;766;51.502;9.752;2022-07-23T04:10:07;15.70;99.90
1546;DHT22;766;51.502;9.752;2022-07-23T04:12:36;15.70;99.90
1546;DHT22;766;51.502;9.752;2022-07-23T04:15:06;15.70;99.90
1546;DHT22;766;51.502;9.752;2022-07-23T04:17:35;15.70;99.90
1546;DHT22;766;51.502;9.752;2022-07-23T04:20:06;15.80;99.90
1546;DHT22;766;51.502;9.752;2022-07-23T04:22:35;15.80;99.90
1546;DHT22;766;51.502;9.752;2022-07-23T04:25:05;15.80;99.90
1546;DHT22;766;51.502;9.752;2022-07-23T04:27:34;15.80;99.90
1546;DHT22;766;51.502;9.752;2022-07-23T04:30:02;15.80;99.90
1546;DHT22;766;51.502;9.752;2022-07-23T04:32:31;15.90;99.90
1546;DHT22;766;51.502;9.752;2022-07-23T04:34:59;15.90;99.90
1546;DHT22;766;51.502;9.752;2022-07-23T04:37:29;16.00;99.90
1546;DHT22;766;51.502;9.752;2022-07-23T04:39:57;16.00;99.90
1546;DHT22;766;51.502;9.752;2022-07-23T04:42:26;16.10;99.90
1546;DHT22;766;51.502;9.752;2022-07-23T04:44:54;16.10;99.90
1546;DHT22;766;51.502;9.752;2022-07-23T04:47:23;16.10;99.90
1546;DHT22;766;51.502;9.752;2022-07-23T04:49:54;16.20;99.90
1546;DHT22;766;51.502;9.752;2022-07-23T04:52:23;16.20;99.90
1546;DHT22;766;51.502;9.752;2022-07-23T04:54:52;16.20;99.90
1546;DHT22;766;51.502;9.752;2022-07-23T04:57:21;16.20;99.90
1546;DHT22;766;51.502;9.752;2022-07-23T04:59:49;16.30;99.90
1546;DHT22;766;51.502;9.752;2022-07-23T05:02:21;15.90;99.90
1546;DHT22;766;51.502;9.752;2022-07-23T05:04:49;15.90;99.90
1546;DHT22;766;51.502;9.752;2022-07-23T05:07:31;15.80;99.90
1546;DHT22;766;51.502;9.752;2022-07-23T05:10:01;15.90;99.90
1546;DHT22;766;51.502;9.752;2022-07-23T05:12:30;15.70;99.90
1546;DHT22;766;51.502;9.752;2022-07-23T05:14:59;15.80;99.90
1546;DHT22;766;51.502;9.752;2022-07-23T05:17:28;15.90;99.90
1546;DHT22;766;51.502;9.752;2022-07-23T05:19:56;15.90;99.90
1546;DHT22;766;51.502;9.752;2022-07-23T05:22:27;16.00;99.90
1546;DHT22;766;51.502;9.752;2022-07-23T05:24:55;16.00;99.90
1546;DHT22;766;51.502;9.752;2022-07-23T05:27:25;16.10;99.90
1546;DHT22;766;51.502;9.752;2022-07-23T05:29:53;16.20;99.90
1546;DHT22;766;51.502;9.752;2022-07-23T05:32:21;16.30;99.90
1546;DHT22;766;51.502;9.752;2022-07-23T05:34:50;16.20;99.90
1546;DHT22;766;51.502;9.752;2022-07-23T05:37:19;16.20;99.90
1546;DHT22;766;51.502;9.752;2022-07-23T05:39:48;16.30;99.90
1546;DHT22;766;51.502;9.752;2022-07-23T05:42:16;16.30;99.90
1546;DHT22;766;51.502;9.752;2022-07-23T05:44:46;16.40;99.90
1546;DHT22;766;51.502;9.752;2022-07-23T05:47:15;16.40;99.90
1546;DHT22;766;51.502;9.752;2022-07-23T05:49:44;16.40;99.90
1546;DHT22;766;51.502;9.752;2022-07-23T05:52:13;16.60;99.90
1546;DHT22;766;51.502;9.752;2022-07-23T05:54:42;16.80;99.90
1546;DHT22;766;51.502;9.752;2022-07-23T05:57:11;17.00;99.90
1546;DHT22;766;51.502;9.752;2022-07-23T05:59:39;17.30;99.90
1546;DHT22;766;51.502;9.752;2022-07-23T06:02:09;17.50;99.90
1546;DHT22;766;51.502;9.752;2022-07-23T06:04:38;17.80;99.90
1546;DHT22;766;51.502;9.752;2022-07-23T06:07:07;18.10;99.90
1546;DHT22;766;51.502;9.752;2022-07-23T06:09:36;18.20;99.90
1546;DHT22;766;51.502;9.752;2022-07-23T06:12:05;18.40;99.90
1546;DHT22;766;51.502;9.752;2022-07-23T06:14:35;18.70;99.90
1546;DHT22;766;51.502;9.752;2022-07-23T06:17:03;19.10;99.90
1546;DHT22;766;51.502;9.752;2022-07-23T06:19:33;19.50;99.90
1546;DHT22;766;51.502;9.752;2022-07-23T06:22:01;19.70;99.90
1546;DHT22;766;51.502;9.752;2022-07-23T06:24:30;19.90;99.90
1546;DHT22;766;51.502;9.752;2022-07-23T06:26:58;20.10;99.90
1546;DHT22;766;51.502;9.752;2022-07-23T06:29:27;20.10;99.90
1546;DHT22;766;51.502;9.752;2022-07-23T06:31:59;20.50;99.90
1546;DHT22;766;51.502;9.752;2022-07-23T06:34:27;20.40;99.90
1546;DHT22;766;51.502;9.752;2022-07-23T06:36:57;20.20;99.90
1546;DHT22;766;51.502;9.752;2022-07-23T06:39:26;20.20;99.90
1546;DHT22;766;51.502;9.752;2022-07-23T06:41:54;19.70;99.90
1546;DHT22;766;51.502;9.752;2022-07-23T06:44:27;20.20;99.90
1546;DHT22;766;51.502;9.752;2022-07-23T06:46:57;20.60;99.90
1546;DHT22;766;51.502;9.752;2022-07-23T06:49:28;20.80;99.90
1546;DHT22;766;51.502;9.752;2022-07-23T06:51:57;21.10;99.90
1546;DHT22;766;51.502;9.752;2022-07-23T06:54:26;21.30;99.90
1546;DHT22;766;51.502;9.752;2022-07-23T06:56:55;21.30;99.90
1546;DHT22;766;51.502;9.752;2022-07-23T06:59:24;21.50;99.90
1546;DHT22;766;51.502;9.752;2022-07-23T07:01:52;21.80;99.90
1546;DHT22;766;51.502;9.752;2022-07-23T07:04:21;21.60;99.90
1546;DHT22;766;51.502;9.752;2022-07-23T07:06:49;21.80;99.90
1546;DHT22;766;51.502;9.752;2022-07-23T07:09:19;22.40;99.90
1546;DHT22;766;51.502;9.752;2022-07-23T07:11:47;22.70;99.90
1546;DHT22;766;51.502;9.752;2022-07-23T07:14:15;23.50;99.90
1546;DHT22;766;51.502;9.752;2022-07-23T07:16:44;23.30;99.90
1546;DHT22;766;51.502;9.752;2022-07-23T07:19:12;23.10;99.90
1546;DHT22;766;51.502;9.752;2022-07-23T07:21:43;23.40;99.90
1546;DHT22;766;51.502;9.752;2022-07-23T07:24:12;24.00;99.90
1546;DHT22;766;51.502;9.752;2022-07-23T07:26:42;24.30;99.90
1546;DHT22;766;51.502;9.752;2022-07-23T07:29:11;25.10;99.90
1546;DHT22;766;51.502;9.752;2022-07-23T07:31:39;25.80;99.90
1546;DHT22;766;51.502;9.752;2022-07-23T07:34:08;26.30;99.90
1546;DHT22;766;51.502;9.752;2022-07-23T07:36:36;26.50;99.90
1546;DHT22;766;51.502;9.752;2022-07-23T07:39:05;26.50;99.90
1546;DHT22;766;51.502;9.752;2022-07-23T07:41:33;26.20;99.90
1546;DHT22;766;51.502;9.752;2022-07-23T07:44:12;26.40;99.90
1546;DHT22;766;51.502;9.752;2022-07-23T07:46:41;25.90;99.90
1546;DHT22;766;51.502;9.752;2022-07-23T07:49:09;24.70;99.90
1546;DHT22;766;51.502;9.752;2022-07-23T07:51:42;23.90;99.90
1546;DHT22;766;51.502;9.752;2022-07-23T07:54:11;23.30;99.90
1546;DHT22;766;51.502;9.752;2022-07-23T07:56:41;22.80;99.90
1546;DHT22;766;51.502;9.752;2022-07-23T07:59:09;23.00;99.90
1546;DHT22;766;51.502;9.752;2022-07-23T08:01:40;24.10;99.90
1546;DHT22;766;51.502;9.752;2022-07-23T08:04:09;24.90;99.90
1546;DHT22;766;51.502;9.752;2022-07-23T08:06:37;25.40;99.90
1546;DHT22;766;51.502;9.752;2022-07-23T08:09:06;25.80;99.90
1546;DHT22;766;51.502;9.752;2022-07-23T08:11:35;26.30;99.90
1546;DHT22;766;51.502;9.752;2022-07-23T08:14:03;27.00;99.90
1546;DHT22;766;51.502;9.752;2022-07-23T08:16:32;27.60;99.90
1546;DHT22;766;51.502;9.752;2022-07-23T08:19:23;28.90;99.90
1546;DHT22;766;51.502;9.752;2022-07-23T08:22:02;29.50;99.90
1546;DHT22;766;51.502;9.752;2022-07-23T08:24:53;30.20;99.90
1546;DHT22;766;51.502;9.752;2022-07-23T08:27:23;30.70;99.90
1546;DHT22;766;51.502;9.752;2022-07-23T08:29:53;30.50;99.90
1546;DHT22;766;51.502;9.752;2022-07-23T08:32:22;28.60;99.90
1546;DHT22;766;51.502;9.752;2022-07-23T08:35:12;27.90;99.90
1546;DHT22;766;51.502;9.752;2022-07-23T08:37:41;27.50;99.90
1546;DHT22;766;51.502;9.752;2022-07-23T08:40:11;28.10;99.90
1546;DHT22;766;51.502;9.752;2022-07-23T08:42:39;29.40;99.90
1546;DHT22;766;51.502;9.752;2022-07-23T08:45:08;29.60;99.90
1546;DHT22;766;51.502;9.752;2022-07-23T08:47:38;29.20;99.90
1546;DHT22;766;51.502;9.752;2022-07-23T08:50:08;27.60;99.90
1546;DHT22;766;51.502;9.752;2022-07-23T08:52:39;26.80;99.90
1546;DHT22;766;51.502;9.752;2022-07-23T08:55:08;27.20;99.90
1546;DHT22;766;51.502;9.752;2022-07-23T08:57:37;27.70;99.90
1546;DHT22;766;51.502;9.752;2022-07-23T09:00:07;27.60;99.90
1546;DHT22;766;51.502;9.752;2022-07-23T09:02:40;27.90;99.90
1546;DHT22;766;51.502;9.752;2022-07-23T09:05:10;28.50;99.90
1546;DHT22;766;51.502;9.752;2022-07-23T09:08:08;28.90;99.90
1546;DHT22;766;51.502;9.752;2022-07-23T09:10:48;28.40;99.90
1546;DHT22;766;51.502;9.752;2022-07-23T09:13:29;28.40;99.90
1546;DHT22;766;51.502;9.752;2022-07-23T09:15:59;29.10;99.90
1546;DHT22;766;51.502;9.752;2022-07-23T09:18:37;29.30;99.90
1546;DHT22;766;51.502;9.752;2022-07-23T09:21:19;29.70;99.90
1546;DHT22;766;51.502;9.752;2022-07-23T09:23:57;29.70;99.90
1546;DHT22;766;51.502;9.752;2022-07-23T09:26:32;30.80;99.90
1546;DHT22;766;51.502;9.752;2022-07-23T09:29:07;30.80;99.90
1546;DHT22;766;51.502;9.752;2022-07-23T09:31:48;30.50;99.90
1546;DHT22;766;51.502;9.752;2022-07-23T09:34:20;30.20;99.90
1546;DHT22;766;51.502;9.752;2022-07-23T09:36:51;30.10;99.90
1546;DHT22;766;51.502;9.752;2022-07-23T09:39:29;30.10;99.90
1546;DHT22;766;51.502;9.752;2022-07-23T09:42:12;30.20;99.90
1546;DHT22;766;51.502;9.752;2022-07-23T09:44:41;30.80;99.90
1546;DHT22;766;51.502;9.752;2022-07-23T09:47:11;31.30;99.90
1546;DHT22;766;51.502;9.752;2022-07-23T09:49:39;31.90;99.90
1546;DHT22;766;51.502;9.752;2022-07-23T09:52:08;32.70;99.90
1546;DHT22;766;51.502;9.752;2022-07-23T09:54:39;33.20;99.90
1546;DHT22;766;51.502;9.752;2022-07-23T09:57:09;33.50;99.90
1546;DHT22;766;51.502;9.752;2022-07-23T09:59:42;33.60;99.90
1546;DHT22;766;51.502;9.752;2022-07-23T10:02:12;33.60;99.90
1546;DHT22;766;51.502;9.752;2022-07-23T10:04:46;33.80;99.90
1546;DHT22;766;51.502;9.752;2022-07-23T10:07:17;33.70;99.90
1546;DHT22;766;51.502;9.752;2022-07-23T10:09:47;34.40;99.90
1546;DHT22;766;51.502;9.752;2022-07-23T10:12:18;35.10;99.90
1546;DHT22;766;51.502;9.752;2022-07-23T10:15:20;35.00;99.00
1546;DHT22;766;51.502;9.752;2022-07-23T10:17:48;34.80;99.40
1546;DHT22;766;51.502;9.752;2022-07-23T10:20:17;35.00;98.00
1546;DHT22;766;51.502;9.752;2022-07-23T10:22:50;35.40;97.40
1546;DHT22;766;51.502;9.752;2022-07-23T10:25:29;36.00;96.20
1546;DHT22;766;51.502;9.752;2022-07-23T10:31:17;36.10;94.90
1546;DHT22;766;51.502;9.752;2022-07-23T10:34:16;35.90;95.30
1546;DHT22;766;51.502;9.752;2022-07-23T10:36:49;36.50;94.60
1546;DHT22;766;51.502;9.752;2022-07-23T10:39:22;36.60;92.20
1546;DHT22;766;51.502;9.752;2022-07-23T10:42:08;36.40;93.10
1546;DHT22;766;51.502;9.752;2022-07-23T10:44:42;35.50;92.70
1546;DHT22;766;51.502;9.752;2022-07-23T10:47:11;35.20;93.00
1546;DHT22;766;51.502;9.752;2022-07-23T10:50:22;35.80;92.20
1546;DHT22;766;51.502;9.752;2022-07-23T10:53:14;36.30;92.50
1546;DHT22;766;51.502;9.752;2022-07-23T10:55:51;36.60;92.10
1546;DHT22;766;51.502;9.752;2022-07-23T10:58:23;36.50;90.90
1546;DHT22;766;51.502;9.752;2022-07-23T11:01:34;36.70;90.70
1546;DHT22;766;51.502;9.752;2022-07-23T11:04:04;36.70;89.90
1546;DHT22;766;51.502;9.752;2022-07-23T11:07:06;36.50;90.10
1546;DHT22;766;51.502;9.752;2022-07-23T11:09:39;36.60;90.00
1546;DHT22;766;51.502;9.752;2022-07-23T11:12:35;36.20;89.40
1546;DHT22;766;51.502;9.752;2022-07-23T11:15:07;36.40;90.50
1546;DHT22;766;51.502;9.752;2022-07-23T11:17:38;36.50;90.00
1546;DHT22;766;51.502;9.752;2022-07-23T11:20:21;36.80;90.40
1546;DHT22;766;51.502;9.752;2022-07-23T11:22:52;36.70;88.10
1546;DHT22;766;51.502;9.752;2022-07-23T11:25:34;37.20;88.60
1546;DHT22;766;51.502;9.752;2022-07-23T11:28:16;37.50;86.70
1546;DHT22;766;51.502;9.752;2022-07-23T11:30:50;37.30;84.50
1546;DHT22;766;51.502;9.752;2022-07-23T11:33:21;36.70;85.70
1546;DHT22;766;51.502;9.752;2022-07-23T11:36:01;36.90;86.40
1546;DHT22;766;51.502;9.752;2022-07-23T11:38:32;36.90;87.10
1546;DHT22;766;51.502;9.752;2022-07-23T11:41:02;37.20;86.30
1546;DHT22;766;51.502;9.752;2022-07-23T11:43:30;37.10;86.00
1546;DHT22;766;51.502;9.752;2022-07-23T11:46:01;36.20;85.30
1546;DHT22;766;51.502;9.752;2022-07-23T11:48:30;35.00;86.30
1546;DHT22;766;51.502;9.752;2022-07-23T11:51:06;34.70;89.20
1546;DHT22;766;51.502;9.752;2022-07-23T11:53:35;35.80;85.70
1546;DHT22;766;51.502;9.752;2022-07-23T11:56:05;36.50;83.20
1546;DHT22;766;51.502;9.752;2022-07-23T11:58:34;37.10;84.50
1546;DHT22;766;51.502;9.752;2022-07-23T12:01:04;36.20;81.40
1546;DHT22;766;51.502;9.752;2022-07-23T12:03:49;35.00;83.40
1546;DHT22;766;51.502;9.752;2022-07-23T12:06:18;35.00;85.70
1546;DHT22;766;51.502;9.752;2022-07-23T12:08:46;35.60;85.00
1546;DHT22;766;51.502;9.752;2022-07-23T12:11:15;36.40;83.80
1546;DHT22;766;51.502;9.752;2022-07-23T12:13:44;36.40;84.00
1546;DHT22;766;51.502;9.752;2022-07-23T12:16:25;36.50;83.30
1546;DHT22;766;51.502;9.752;2022-07-23T12:18:54;36.40;82.30
1546;DHT22;766;51.502;9.752;2022-07-23T12:21:23;36.50;81.50
1546;DHT22;766;51.502;9.752;2022-07-23T12:23:52;36.30;82.50
1546;DHT22;766;51.502;9.752;2022-07-23T12:26:34;36.60;81.40
1546;DHT22;766;51.502;9.752;2022-07-23T12:29:02;37.00;80.50
1546;DHT22;766;51.502;9.752;2022-07-23T12:31:33;36.80;79.10
1546;DHT22;766;51.502;9.752;2022-07-23T12:34:13;35.60;80.50
1546;DHT22;766;51.502;9.752;2022-07-23T12:36:43;35.50;82.00
1546;DHT22;766;51.502;9.752;2022-07-23T12:39:29;35.20;81.90
1546;DHT22;766;51.502;9.752;2022-07-23T12:41:58;34.80;82.10
1546;DHT22;766;51.502;9.752;2022-07-23T12:44:27;33.90;83.90
1546;DHT22;766;51.502;9.752;2022-07-23T12:46:58;33.20;86.60
1546;DHT22;766;51.502;9.752;2022-07-23T12:49:26;32.20;87.00
1546;DHT22;766;51.502;9.752;2022-07-23T12:52:16;31.70;89.10
1546;DHT22;766;51.502;9.752;2022-07-23T12:54:46;31.50;87.60
1546;DHT22;766;51.502;9.752;2022-07-23T12:57:15;31.30;88.20
1546;DHT22;766;51.502;9.752;2022-07-23T12:59:45;31.00;88.30
1546;DHT22;766;51.502;9.752;2022-07-23T13:02:17;30.40;89.40
1546;DHT22;766;51.502;9.752;2022-07-23T13:04:47;30.20;90.70
1546;DHT22;766;51.502;9.752;2022-07-23T13:07:16;29.80;90.40
1546;DHT22;766;51.502;9.752;2022-07-23T13:09:45;29.90;91.00
1546;DHT22;766;51.502;9.752;2022-07-23T13:12:13;29.90;90.50
1546;DHT22;766;51.502;9.752;2022-07-23T13:14:42;29.80;91.10
1546;DHT22;766;51.502;9.752;2022-07-23T13:17:11;29.60;91.70
1546;DHT22;766;51.502;9.752;2022-07-23T13:19:41;29.60;92.10
1546;DHT22;766;51.502;9.752;2022-07-23T13:22:11;29.50;91.40
1546;DHT22;766;51.502;9.752;2022-07-23T13:24:39;29.40;91.30
1546;DHT22;766;51.502;9.752;2022-07-23T13:27:08;29.40;91.30
1546;DHT22;766;51.502;9.752;2022-07-23T13:29:39;29.40;91.50
1546;DHT22;766;51.502;9.752;2022-07-23T13:32:08;29.10;91.50
1546;DHT22;766;51.502;9.752;2022-07-23T13:34:41;29.00;92.30
1546;DHT22;766;51.502;9.752;2022-07-23T13:37:10;28.80;92.10
1546;DHT22;766;51.502;9.752;2022-07-23T13:39:40;28.80;92.50
1546;DHT22;766;51.502;9.752;2022-07-23T13:42:10;28.80;92.60
1546;DHT22;766;51.502;9.752;2022-07-23T13:44:41;28.50;92.80
1546;DHT22;766;51.502;9.752;2022-07-23T13:47:10;28.50;94.20
1546;DHT22;766;51.502;9.752;2022-07-23T13:49:38;28.50;92.90
1546;DHT22;766;51.502;9.752;2022-07-23T13:52:08;28.50;93.20
1546;DHT22;766;51.502;9.752;2022-07-23T13:54:38;28.40;93.30
1546;DHT22;766;51.502;9.752;2022-07-23T13:57:06;28.40;93.40
1546;DHT22;766;51.502;9.752;2022-07-23T13:59:36;28.40;93.30
1546;DHT22;766;51.502;9.752;2022-07-23T14:02:05;28.00;99.90
1546;DHT22;766;51.502;9.752;2022-07-23T14:04:53;27.00;99.90
1546;DHT22;766;51.502;9.752;2022-07-23T14:07:23;25.90;99.90
1546;DHT22;766;51.502;9.752;2022-07-23T14:09:51;25.40;99.90
1546;DHT22;766;51.502;9.752;2022-07-23T14:12:21;25.10;99.90
1546;DHT22;766;51.502;9.752;2022-07-23T14:14:50;25.10;99.90
1546;DHT22;766;51.502;9.752;2022-07-23T14:17:20;25.10;99.90
1546;DHT22;766;51.502;9.752;2022-07-23T14:19:50;25.20;99.90
1546;DHT22;766;51.502;9.752;2022-07-23T14:22:19;25.30;99.90
1546;DHT22;766;51.502;9.752;2022-07-23T14:24:49;25.50;99.90
1546;DHT22;766;51.502;9.752;2022-07-23T14:27:18;25.70;99.90
1546;DHT22;766;51.502;9.752;2022-07-23T14:29:47;25.70;99.90
1546;DHT22;766;51.502;9.752;2022-07-23T14:32:16;25.80;99.90
1546;DHT22;766;51.502;9.752;2022-07-23T14:34:45;25.90;99.90
1546;DHT22;766;51.502;9.752;2022-07-23T14:37:16;26.10;99.90
1546;DHT22;766;51.502;9.752;2022-07-23T14:39:45;26.20;99.90
1546;DHT22;766;51.502;9.752;2022-07-23T14:42:18;26.30;99.90
1546;DHT22;766;51.502;9.752;2022-07-23T14:44:52;26.30;99.90
1546;DHT22;766;51.502;9.752;2022-07-23T14:47:21;26.30;99.90
1546;DHT22;766;51.502;9.752;2022-07-23T14:49:52;26.30;99.90
1546;DHT22;766;51.502;9.752;2022-07-23T14:52:22;26.40;99.90
1546;DHT22;766;51.502;9.752;2022-07-23T14:54:51;26.40;99.90
1546;DHT22;766;51.502;9.752;2022-07-23T14:57:21;26.30;99.90
1546;DHT22;766;51.502;9.752;2022-07-23T14:59:53;26.30;99.90
1546;DHT22;766;51.502;9.752;2022-07-23T15:02:25;26.20;99.90
1546;DHT22;766;51.502;9.752;2022-07-23T15:04:54;26.20;99.90
1546;DHT22;766;51.502;9.752;2022-07-23T15:07:25;26.20;99.90
1546;DHT22;766;51.502;9.752;2022-07-23T15:09:54;26.10;99.90
1546;DHT22;766;51.502;9.752;2022-07-23T15:12:24;26.10;99.90
1546;DHT22;766;51.502;9.752;2022-07-23T15:14:53;25.90;99.90
1546;DHT22;766;51.502;9.752;2022-07-23T15:17:22;25.90;99.90
1546;DHT22;766;51.502;9.752;2022-07-23T15:19:54;25.80;99.90
1546;DHT22;766;51.502;9.752;2022-07-23T15:22:23;25.80;99.90
1546;DHT22;766;51.502;9.752;2022-07-23T15:24:52;25.80;99.90
1546;DHT22;766;51.502;9.752;2022-07-23T15:27:20;25.80;99.90
1546;DHT22;766;51.502;9.752;2022-07-23T15:29:53;25.60;99.90
1546;DHT22;766;51.502;9.752;2022-07-23T15:32:21;25.40;99.90
1546;DHT22;766;51.502;9.752;2022-07-23T15:34:52;25.50;99.90
1546;DHT22;766;51.502;9.752;2022-07-23T15:37:20;25.60;99.90
1546;DHT22;766;51.502;9.752;2022-07-23T15:39:51;25.60;99.90
1546;DHT22;766;51.502;9.752;2022-07-23T15:42:20;25.60;99.90
1546;DHT22;766;51.502;9.752;2022-07-23T15:44:48;25.30;99.90
1546;DHT22;766;51.502;9.752;2022-07-23T15:47:19;25.30;99.90
1546;DHT22;766;51.502;9.752;2022-07-23T15:49:51;25.30;99.90
1546;DHT22;766;51.502;9.752;2022-07-23T15:52:20;25.10;99.90
1546;DHT22;766;51.502;9.752;2022-07-23T15:54:48;25.10;99.90
1546;DHT22;766;51.502;9.752;2022-07-23T15:57:17;25.10;99.90
1546;DHT22;766;51.502;9.752;2022-07-23T15:59:47;25.10;99.90
1546;DHT22;766;51.502;9.752;2022-07-23T16:02:19;25.10;99.90
1546;DHT22;766;51.502;9.752;2022-07-23T16:04:48;25.10;99.90
1546;DHT22;766;51.502;9.752;2022-07-23T16:07:18;25.20;99.90
1546;DHT22;766;51.502;9.752;2022-07-23T16:09:47;25.20;99.90
1546;DHT22;766;51.502;9.752;2022-07-23T16:12:15;25.10;99.90
1546;DHT22;766;51.502;9.752;2022-07-23T16:14:44;25.00;99.90
1546;DHT22;766;51.502;9.752;2022-07-23T16:17:13;25.00;99.90
1546;DHT22;766;51.502;9.752;2022-07-23T16:19:45;25.00;99.90
1546;DHT22;766;51.502;9.752;2022-07-23T16:22:14;25.00;99.90
1546;DHT22;766;51.502;9.752;2022-07-23T16:24:43;25.00;99.90
1546;DHT22;766;51.502;9.752;2022-07-23T16:27:11;24.80;99.90
1546;DHT22;766;51.502;9.752;2022-07-23T16:29:40;24.90;99.90
1546;DHT22;766;51.502;9.752;2022-07-23T16:32:08;24.80;99.90
1546;DHT22;766;51.502;9.752;2022-07-23T16:34:37;24.80;99.90
1546;DHT22;766;51.502;9.752;2022-07-23T16:37:09;24.80;99.90
1546;DHT22;766;51.502;9.752;2022-07-23T16:39:37;24.80;99.90
1546;DHT22;766;51.502;9.752;2022-07-23T16:42:06;24.70;99.90
1546;DHT22;766;51.502;9.752;2022-07-23T16:44:36;24.60;99.90